createdAt,value
2022-08-14T00:02:38.831Z,29.30
2022-08-14T00:07:46.424Z,29.30
2022-08-14T00:12:53.387Z,29.20
2022-08-14T00:18:00.537Z,29.20
2022-08-14T00:23:16.545Z,29.20
2022-08-14T00:28:26.520Z,29.20
2022-08-14T00:33:51.650Z,29.10
2022-08-14T00:38:57.546Z,29.10
2022-08-14T00:44:01.472Z,29.10
2022-08-14T00:49:05.115Z,29.00
2022-08-14T00:54:11.247Z,29.00
2022-08-14T00:59:26.300Z,29.00
2022-08-14T01:04:51.880Z,29.00
2022-08-14T01:09:58.724Z,29.00
2022-08-14T01:15:03.411Z,29.00
2022-08-14T01:20:27.469Z,29.00
2022-08-14T01:25:32.659Z,29.00
2022-08-14T01:30:38.385Z,29.00
2022-08-14T01:36:04.842Z,29.00
2022-08-14T01:41:14.806Z,28.90
2022-08-14T01:46:24.560Z,28.90
2022-08-14T01:51:29.716Z,28.90
2022-08-14T01:56:39.162Z,28.90
2022-08-14T02:01:58.576Z,28.90
2022-08-14T02:07:03.485Z,28.90
2022-08-14T02:12:10.743Z,28.90
2022-08-14T02:17:23.732Z,28.90
2022-08-14T02:22:32.632Z,28.90
2022-08-14T02:28:24.749Z,29.00
2022-08-14T02:33:05.743Z,29.00
2022-08-14T02:38:11.681Z,29.00
2022-08-14T02:43:36.484Z,28.90
2022-08-14T02:49:00.966Z,28.90
2022-08-14T02:54:07.267Z,28.90
2022-08-14T02:59:14.199Z,28.90
2022-08-14T03:04:17.658Z,28.90
2022-08-14T03:09:23.888Z,28.90
2022-08-14T03:14:28.538Z,28.90
2022-08-14T03:19:31.765Z,28.90
2022-08-14T03:24:35.869Z,28.90
2022-08-14T03:29:43.780Z,28.90
2022-08-14T03:34:48.437Z,28.90
2022-08-14T03:39:58.764Z,28.90
2022-08-14T03:45:19.259Z,28.90
2022-08-14T03:50:31.324Z,28.90
2022-08-14T03:55:36.587Z,28.90
2022-08-14T04:00:44.997Z,28.90
2022-08-14T04:05:49.348Z,28.80
2022-08-14T04:10:52.723Z,28.80
2022-08-14T04:16:01.978Z,28.80
2022-08-14T04:21:08.527Z,28.80
2022-08-14T04:26:26.925Z,28.80
2022-08-14T04:33:00.208Z,28.80
2022-08-14T04:37:24.686Z,28.80
2022-08-14T04:42:47.345Z,28.80
2022-08-14T04:48:39.194Z,28.70
2022-08-14T04:53:40.995Z,28.70
2022-08-14T04:58:48.007Z,28.70
2022-08-14T05:03:53.446Z,28.70
2022-08-14T05:08:59.878Z,28.70
2022-08-14T05:14:17.129Z,28.70
2022-08-14T05:19:29.104Z,28.70
2022-08-14T05:24:33.042Z,28.80
2022-08-14T05:29:37.229Z,28.80
2022-08-14T05:34:41.785Z,28.80
2022-08-14T05:39:49.199Z,28.80
2022-08-14T05:44:54.196Z,28.90
2022-08-14T05:50:00.036Z,28.90
2022-08-14T05:55:03.884Z,28.90
2022-08-14T06:00:07.907Z,28.90
2022-08-14T06:05:15.560Z,28.90
2022-08-14T06:10:19.045Z,28.90
2022-08-14T06:15:25.202Z,28.90
2022-08-14T06:20:34.406Z,29.00
2022-08-14T06:25:37.693Z,29.00
2022-08-14T06:30:47.066Z,29.00
2022-08-14T06:35:52.190Z,29.00
2022-08-14T06:40:56.061Z,29.00
2022-08-14T06:46:03.180Z,29.10
2022-08-14T06:51:07.918Z,29.10
2022-08-14T06:56:11.332Z,29.10
2022-08-14T07:01:47.907Z,29.10
2022-08-14T07:06:59.538Z,29.10
2022-08-14T07:12:02.935Z,29.20
2022-08-14T07:17:07.473Z,29.10
2022-08-14T07:22:20.242Z,29.20
2022-08-14T07:27:23.744Z,29.10
2022-08-14T07:32:33.890Z,29.20
2022-08-14T07:37:38.984Z,29.20
2022-08-14T07:42:42.927Z,29.20
2022-08-14T07:47:49.493Z,29.20
2022-08-14T07:52:54.071Z,29.20
2022-08-14T07:57:57.626Z,29.20
2022-08-14T08:03:01.284Z,29.20
2022-08-14T08:08:08.486Z,29.30
2022-08-14T08:13:34.312Z,29.30
2022-08-14T08:18:43.022Z,29.30
2022-08-14T08:23:51.346Z,29.30
2022-08-14T08:28:57.926Z,29.30
2022-08-14T08:34:06.388Z,29.30
2022-08-14T08:39:14.856Z,29.40
2022-08-14T08:44:31.748Z,29.40
2022-08-14T08:49:43.111Z,29.50
2022-08-14T08:54:56.138Z,29.50
2022-08-14T09:00:02.720Z,29.60
2022-08-14T09:05:13.308Z,29.80
2022-08-14T09:10:18.680Z,29.80
2022-08-14T09:15:25.768Z,29.90
2022-08-14T09:20:40.954Z,30.10
2022-08-14T09:26:00.639Z,30.20
2022-08-14T09:31:08.588Z,30.30
2022-08-14T09:36:50.181Z,30.40
2022-08-14T09:42:21.347Z,30.50
2022-08-14T09:47:45.449Z,30.60
2022-08-14T09:52:54.976Z,30.70
2022-08-14T09:58:15.056Z,30.70
2022-08-14T10:03:30.366Z,30.80
2022-08-14T10:08:45.389Z,30.90
2022-08-14T10:13:59.501Z,30.90
2022-08-14T10:19:07.369Z,31.00
2022-08-14T10:24:17.678Z,31.00
2022-08-14T10:29:33.896Z,31.10
2022-08-14T10:34:40.984Z,31.10
2022-08-14T10:40:02.119Z,31.20
2022-08-14T10:45:21.866Z,31.30
2022-08-14T10:50:32.785Z,31.40
2022-08-14T10:55:39.610Z,31.50
2022-08-14T11:00:58.495Z,31.50
2022-08-14T11:06:12.768Z,31.60
2022-08-14T11:11:17.891Z,31.60
2022-08-14T11:16:23.020Z,31.60
2022-08-14T11:21:34.235Z,31.70
2022-08-14T11:26:40.074Z,31.70
2022-08-14T11:31:46.645Z,31.80
2022-08-14T11:37:02.773Z,31.80
2022-08-14T11:42:58.470Z,31.90
2022-08-14T11:48:10.683Z,31.90
2022-08-14T11:53:22.166Z,31.90
2022-08-14T11:58:31.277Z,32.00
2022-08-14T12:03:51.354Z,32.10
2022-08-14T12:09:00.260Z,32.30
2022-08-14T12:14:13.357Z,32.30
2022-08-14T12:19:45.961Z,32.50
2022-08-14T12:24:54.872Z,32.50
2022-08-14T12:29:59.971Z,32.60
2022-08-14T12:35:05.206Z,32.70
2022-08-14T12:40:19.478Z,32.90
2022-08-14T12:45:33.282Z,33.10
2022-08-14T12:50:40.499Z,33.40
2022-08-14T12:56:17.839Z,33.70
2022-08-14T13:01:16.759Z,33.80
2022-08-14T13:06:27.634Z,34.00
2022-08-14T13:11:37.752Z,34.20
2022-08-14T13:16:50.278Z,34.30
2022-08-14T13:22:05.844Z,34.50
2022-08-14T13:27:13.476Z,34.60
2022-08-14T13:32:17.884Z,34.80
2022-08-14T13:37:22.731Z,34.90
2022-08-14T13:42:30.186Z,35.10
2022-08-14T13:47:34.018Z,35.30
2022-08-14T13:52:52.176Z,35.40
2022-08-14T13:58:03.476Z,35.60
2022-08-14T14:03:08.626Z,35.80
2022-08-14T14:08:18.960Z,35.90
2022-08-14T14:13:44.640Z,36.00
2022-08-14T14:18:52.285Z,36.20
2022-08-14T14:23:58.120Z,36.30
2022-08-14T14:29:02.687Z,36.40
2022-08-14T14:34:19.920Z,36.40
2022-08-14T14:39:37.575Z,36.50
2022-08-14T14:44:42.440Z,36.40
2022-08-14T14:49:54.698Z,36.40
2022-08-14T14:55:00.655Z,36.30
2022-08-14T15:00:05.752Z,36.10
2022-08-14T15:05:09.832Z,36.00
2022-08-14T15:10:28.160Z,35.80
2022-08-14T15:15:37.882Z,35.70
2022-08-14T15:20:43.063Z,35.50
2022-08-14T15:25:53.160Z,35.40
2022-08-14T15:30:58.903Z,35.20
2022-08-14T15:36:03.988Z,35.10
2022-08-14T15:41:08.813Z,34.90
2022-08-14T15:46:41.082Z,34.80
2022-08-14T15:51:35.549Z,34.70
2022-08-14T15:56:46.972Z,34.60
2022-08-14T16:01:54.600Z,34.50
2022-08-14T16:06:58.219Z,34.30
2022-08-14T16:12:03.051Z,34.20
2022-08-14T16:17:08.993Z,34.10
2022-08-14T16:22:58.042Z,34.00
2022-08-14T16:27:41.279Z,33.90
2022-08-14T16:32:55.052Z,33.90
2022-08-14T16:38:00.127Z,33.80
2022-08-14T16:43:26.740Z,33.70
2022-08-14T16:48:57.176Z,33.70
2022-08-14T16:53:54.649Z,33.60
2022-08-14T16:59:12.277Z,33.50
2022-08-14T17:04:24.816Z,33.50
2022-08-14T17:09:34.003Z,33.40
2022-08-14T17:15:10.123Z,33.30
2022-08-14T17:20:54.710Z,33.30
2022-08-14T17:25:40.113Z,33.20
2022-08-14T17:30:56.927Z,33.20
2022-08-14T17:36:21.337Z,33.10
2022-08-14T17:41:32.590Z,33.10
2022-08-14T17:46:43.931Z,33.00
2022-08-14T17:52:07.608Z,33.00
2022-08-14T17:57:23.231Z,32.90
2022-08-14T18:02:31.117Z,32.90
2022-08-14T18:07:59.970Z,32.80
2022-08-14T18:13:00.576Z,32.80
2022-08-14T18:18:08.990Z,32.70
2022-08-14T18:23:13.898Z,32.70
2022-08-14T18:28:50.955Z,32.60
2022-08-14T18:33:54.148Z,32.60
2022-08-14T18:39:25.748Z,32.50
2022-08-14T18:45:12.707Z,32.50
2022-08-14T18:50:26.838Z,32.40
2022-08-14T18:55:53.460Z,32.40
2022-08-14T19:00:59.872Z,32.30
2022-08-14T19:06:06.009Z,32.30
2022-08-14T19:11:50.534Z,32.20
2022-08-14T19:16:55.002Z,32.20
2022-08-14T19:22:01.941Z,32.10
2022-08-14T19:27:19.228Z,32.10
2022-08-14T19:32:40.959Z,32.00
2022-08-14T19:37:48.438Z,32.00
2022-08-14T19:42:58.307Z,31.90
2022-08-14T19:48:03.282Z,31.90
2022-08-14T19:53:11.822Z,31.80
2022-08-14T19:58:30.131Z,31.80
2022-08-14T20:04:00.775Z,31.70
2022-08-14T20:11:06.882Z,31.70
2022-08-14T20:14:37.325Z,31.60
2022-08-14T20:19:41.977Z,31.50
2022-08-14T20:24:47.462Z,31.50
2022-08-14T20:30:29.587Z,31.50
2022-08-14T20:35:35.811Z,31.40
2022-08-14T20:40:50.482Z,31.40
2022-08-14T20:45:54.089Z,31.30
2022-08-14T20:50:58.597Z,31.30
2022-08-14T20:56:28.954Z,31.20
2022-08-14T21:01:38.545Z,31.20
2022-08-14T21:07:23.139Z,31.10
2022-08-14T21:12:06.134Z,31.10
2022-08-14T21:17:10.723Z,31.00
2022-08-14T21:22:14.042Z,31.00
2022-08-14T21:27:22.570Z,31.00
2022-08-14T21:32:50.061Z,30.90
2022-08-14T21:38:00.752Z,30.90
2022-08-14T21:43:04.150Z,30.90
2022-08-14T21:48:11.360Z,30.80
2022-08-14T21:53:16.916Z,30.80
2022-08-14T21:58:54.253Z,30.70
2022-08-14T22:03:54.457Z,30.70
2022-08-14T22:08:59.157Z,30.70
2022-08-14T22:14:25.240Z,30.60
2022-08-14T22:19:43.525Z,30.60
2022-08-14T22:24:53.046Z,30.60
2022-08-14T22:29:58.598Z,30.50
2022-08-14T22:35:03.384Z,30.40
2022-08-14T22:40:51.508Z,30.40
2022-08-14T22:45:38.148Z,30.30
2022-08-14T22:50:53.084Z,30.30
2022-08-14T22:55:56.973Z,30.20
2022-08-14T23:01:01.504Z,30.10
2022-08-14T23:07:01.276Z,30.00
2022-08-14T23:11:33.756Z,30.00
2022-08-14T23:16:37.637Z,29.90
2022-08-14T23:21:46.337Z,29.90
2022-08-14T23:26:50.720Z,29.80
2022-08-14T23:31:57.217Z,29.70
2022-08-14T23:37:04.725Z,29.60
2022-08-14T23:42:11.554Z,29.60
2022-08-14T23:47:26.492Z,29.50
2022-08-14T23:52:50.480Z,29.40
2022-08-14T23:58:00.642Z,29.40
